KICT/ICT METAR and TAF weather

Enter ICAO airport designator
Station Type Date Time Source
KICT METAR 2020/11/25 21:53 UTC NOAA

KICT 252153Z 30012KT 10SM CLR 09/M01 A2997 RMK AO2 SLP154 T00891011


Station Type Date Time Source
KICT Decoded METAR 2020/11/25 21:53 UTC NOAA

WICHITA MID-CONTINENT AIRPORT , KS, United States (KICT) 37-39N 97-26W 408M
Nov 25, 2020 - 04:53 PM EST / 2020.11.25 2153 UTC
Wind: from the WNW (300 degrees) at 14 MPH (12 KT):0
Visibility: 10 mile(s):0
Sky conditions: clear
Temperature: 48.0 F (8.9 C)
Dew Point: 30.0 F (-1.1 C)
Relative Humidity: 49%
Pressure (altimeter): 29.97 in. Hg (1014 hPa)
ob: KICT 252153Z 30012KT 10SM CLR 09/M01 A2997 RMK AO2 SLP154 T00891011
cycle: 22

Station Type Date Time Source
KICT TAF 2020/11/25 18:33 UTC NOAA

TAF KICT 251730Z 2518/2618 32012KT P6SM SKC
FM252200 28009KT P6SM SKC
FM260100 21006KT P6SM SKC
FM260700 16005KT P6SM SKC

Example: see airport list